sensor_id;sensor_type;location;lat;lon;timestamp;pressure;altitude;pressure_sealevel;temperature;humidity
35307;BME280;21420;52.196;21.416;2022-10-16T00:01:08;100382.78;;;14.31;62.06
35307;BME280;21420;52.196;21.416;2022-10-16T00:03:37;100381.20;;;14.30;62.07
35307;BME280;21420;52.196;21.416;2022-10-16T00:06:06;100386.47;;;14.29;62.07
35307;BME280;21420;52.196;21.416;2022-10-16T00:08:33;100384.30;;;14.29;62.09
35307;BME280;21420;52.196;21.416;2022-10-16T00:13:36;100382.87;;;14.25;62.08
35307;BME280;21420;52.196;21.416;2022-10-16T00:16:04;100380.47;;;14.24;62.06
35307;BME280;21420;52.196;21.416;2022-10-16T00:18:31;100375.25;;;14.19;62.09
35307;BME280;21420;52.196;21.416;2022-10-16T00:21:06;100385.44;;;14.18;62.21
35307;BME280;21420;52.196;21.416;2022-10-16T00:23:34;100388.19;;;14.18;62.16
35307;BME280;21420;52.196;21.416;2022-10-16T00:26:03;100386.37;;;14.16;62.14
35307;BME280;21420;52.196;21.416;2022-10-16T00:28:31;100387.34;;;14.14;62.16
35307;BME280;21420;52.196;21.416;2022-10-16T00:30:58;100385.52;;;14.12;62.16
35307;BME280;21420;52.196;21.416;2022-10-16T00:33:24;100382.89;;;14.09;62.19
35307;BME280;21420;52.196;21.416;2022-10-16T00:35:50;100382.83;;;14.06;62.16
35307;BME280;21420;52.196;21.416;2022-10-16T00:38:17;100376.67;;;14.03;62.22
35307;BME280;21420;52.196;21.416;2022-10-16T00:40:43;100377.23;;;14.02;62.24
35307;BME280;21420;52.196;21.416;2022-10-16T00:43:31;100380.13;;;14.00;62.27
35307;BME280;21420;52.196;21.416;2022-10-16T00:46:04;100381.30;;;13.99;62.27
35307;BME280;21420;52.196;21.416;2022-10-16T00:49:03;100371.91;;;13.93;62.27
35307;BME280;21420;52.196;21.416;2022-10-16T00:51:41;100374.37;;;13.89;62.25
35307;BME280;21420;52.196;21.416;2022-10-16T00:54:22;100369.29;;;13.81;62.29
35307;BME280;21420;52.196;21.416;2022-10-16T00:56:52;100374.63;;;13.74;62.29
35307;BME280;21420;52.196;21.416;2022-10-16T00:59:26;100379.02;;;13.69;62.35
35307;BME280;21420;52.196;21.416;2022-10-16T01:01:54;100389.95;;;13.65;62.40
35307;BME280;21420;52.196;21.416;2022-10-16T01:04:22;100392.46;;;13.64;62.45
35307;BME280;21420;52.196;21.416;2022-10-16T01:09:52;100396.59;;;13.64;62.53
35307;BME280;21420;52.196;21.416;2022-10-16T01:12:56;100401.30;;;13.64;62.59
35307;BME280;21420;52.196;21.416;2022-10-16T01:18:54;100408.31;;;13.61;62.63
35307;BME280;21420;52.196;21.416;2022-10-16T01:21:27;100405.70;;;13.59;62.76
35307;BME280;21420;52.196;21.416;2022-10-16T01:24:17;100406.63;;;13.57;62.70
35307;BME280;21420;52.196;21.416;2022-10-16T01:27:18;100414.23;;;13.53;62.75
35307;BME280;21420;52.196;21.416;2022-10-16T01:29:54;100416.16;;;13.53;62.87
35307;BME280;21420;52.196;21.416;2022-10-16T01:35:32;100419.49;;;13.52;62.88
35307;BME280;21420;52.196;21.416;2022-10-16T01:38:19;100431.66;;;13.51;62.86
35307;BME280;21420;52.196;21.416;2022-10-16T01:40:54;100434.86;;;13.53;63.02
35307;BME280;21420;52.196;21.416;2022-10-16T01:43:30;100431.29;;;13.53;63.02
35307;BME280;21420;52.196;21.416;2022-10-16T01:45:54;100447.31;;;13.57;63.05
35307;BME280;21420;52.196;21.416;2022-10-16T01:48:21;100451.20;;;13.62;63.17
35307;BME280;21420;52.196;21.416;2022-10-16T01:50:59;100447.48;;;13.64;63.13
35307;BME280;21420;52.196;21.416;2022-10-16T01:53:33;100436.06;;;13.62;63.02
35307;BME280;21420;52.196;21.416;2022-10-16T01:56:02;100444.80;;;13.58;62.99
35307;BME280;21420;52.196;21.416;2022-10-16T01:58:33;100440.98;;;13.63;63.12
35307;BME280;21420;52.196;21.416;2022-10-16T02:01:02;100438.30;;;13.66;63.17
35307;BME280;21420;52.196;21.416;2022-10-16T02:03:31;100441.50;;;13.68;63.08
35307;BME280;21420;52.196;21.416;2022-10-16T02:05:59;100439.12;;;13.67;63.05
35307;BME280;21420;52.196;21.416;2022-10-16T02:08:27;100447.28;;;13.63;63.03
35307;BME280;21420;52.196;21.416;2022-10-16T02:10:59;100442.05;;;13.58;62.98
35307;BME280;21420;52.196;21.416;2022-10-16T02:13:45;100433.04;;;13.51;62.95
35307;BME280;21420;52.196;21.416;2022-10-16T02:18:49;100423.92;;;13.41;62.99
35307;BME280;21420;52.196;21.416;2022-10-16T02:21:24;100433.48;;;13.38;63.02
35307;BME280;21420;52.196;21.416;2022-10-16T02:24:08;100433.72;;;13.32;63.06
35307;BME280;21420;52.196;21.416;2022-10-16T02:26:40;100429.28;;;13.28;63.12
35307;BME280;21420;52.196;21.416;2022-10-16T02:29:21;100431.20;;;13.27;63.27
35307;BME280;21420;52.196;21.416;2022-10-16T02:31:51;100429.28;;;13.28;63.28
35307;BME280;21420;52.196;21.416;2022-10-16T02:34:21;100428.45;;;13.27;63.33
35307;BME280;21420;52.196;21.416;2022-10-16T02:36:50;100425.25;;;13.25;63.34
35307;BME280;21420;52.196;21.416;2022-10-16T02:39:18;100422.64;;;13.23;63.31
35307;BME280;21420;52.196;21.416;2022-10-16T02:41:45;100422.77;;;13.20;63.35
35307;BME280;21420;52.196;21.416;2022-10-16T02:44:11;100424.73;;;13.20;63.41
35307;BME280;21420;52.196;21.416;2022-10-16T02:46:38;100431.16;;;13.18;63.44
35307;BME280;21420;52.196;21.416;2022-10-16T02:49:04;100427.72;;;13.15;63.44
35307;BME280;21420;52.196;21.416;2022-10-16T02:51:30;100428.30;;;13.14;63.53
35307;BME280;21420;52.196;21.416;2022-10-16T02:53:56;100423.04;;;13.15;63.61
35307;BME280;21420;52.196;21.416;2022-10-16T02:56:22;100424.97;;;13.15;63.61
35307;BME280;21420;52.196;21.416;2022-10-16T02:58:49;100424.75;;;13.13;63.63
35307;BME280;21420;52.196;21.416;2022-10-16T03:01:15;100430.39;;;13.11;63.62
35307;BME280;21420;52.196;21.416;2022-10-16T03:03:42;100426.39;;;13.08;63.64
35307;BME280;21420;52.196;21.416;2022-10-16T03:06:08;100425.12;;;13.06;63.72
35307;BME280;21420;52.196;21.416;2022-10-16T03:08:35;100426.28;;;13.05;63.78
35307;BME280;21420;52.196;21.416;2022-10-16T03:11:01;100427.21;;;13.03;63.80
35307;BME280;21420;52.196;21.416;2022-10-16T03:13:27;100429.96;;;13.03;63.85
35307;BME280;21420;52.196;21.416;2022-10-16T03:15:54;100434.42;;;13.01;63.89
35307;BME280;21420;52.196;21.416;2022-10-16T03:18:20;100437.30;;;12.99;63.87
35307;BME280;21420;52.196;21.416;2022-10-16T03:20:46;100439.50;;;12.99;63.97
35307;BME280;21420;52.196;21.416;2022-10-16T03:23:12;100444.17;;;12.99;64.01
35307;BME280;21420;52.196;21.416;2022-10-16T03:25:39;100447.37;;;13.01;64.08
35307;BME280;21420;52.196;21.416;2022-10-16T03:28:05;100444.63;;;13.01;64.08
35307;BME280;21420;52.196;21.416;2022-10-16T03:30:32;100451.28;;;13.00;64.12
35307;BME280;21420;52.196;21.416;2022-10-16T03:32:58;100454.03;;;13.00;64.18
35307;BME280;21420;52.196;21.416;2022-10-16T03:35:24;100456.99;;;13.01;64.22
35307;BME280;21420;52.196;21.416;2022-10-16T03:37:51;100458.81;;;13.03;64.27
35307;BME280;21420;52.196;21.416;2022-10-16T03:40:17;100458.23;;;13.03;64.27
35307;BME280;21420;52.196;21.416;2022-10-16T03:42:44;100468.55;;;13.06;64.29
35307;BME280;21420;52.196;21.416;2022-10-16T03:45:10;100467.39;;;13.07;64.35
35307;BME280;21420;52.196;21.416;2022-10-16T03:47:37;100469.55;;;13.08;64.36
35307;BME280;21420;52.196;21.416;2022-10-16T03:50:04;100471.75;;;13.08;64.38
35307;BME280;21420;52.196;21.416;2022-10-16T03:52:32;100463.72;;;13.09;64.37
35307;BME280;21420;52.196;21.416;2022-10-16T03:54:58;100465.55;;;13.11;64.45
35307;BME280;21420;52.196;21.416;2022-10-16T03:57:25;100472.28;;;13.14;64.47
35307;BME280;21420;52.196;21.416;2022-10-16T03:59:51;100470.91;;;13.14;64.49
35307;BME280;21420;52.196;21.416;2022-10-16T04:02:17;100472.28;;;13.14;64.49
35307;BME280;21420;52.196;21.416;2022-10-16T04:04:43;100471.36;;;13.16;64.51
35307;BME280;21420;52.196;21.416;2022-10-16T04:07:09;100476.28;;;13.17;64.54
35307;BME280;21420;52.196;21.416;2022-10-16T04:09:35;100474.35;;;13.17;64.54
35307;BME280;21420;52.196;21.416;2022-10-16T04:12:01;100472.16;;;13.17;64.53
35307;BME280;21420;52.196;21.416;2022-10-16T04:14:27;100473.77;;;13.18;64.56
35307;BME280;21420;52.196;21.416;2022-10-16T04:16:53;100476.52;;;13.18;64.56
35307;BME280;21420;52.196;21.416;2022-10-16T04:19:19;100468.03;;;13.17;64.58
35307;BME280;21420;52.196;21.416;2022-10-16T04:21:46;100472.60;;;13.19;64.63
35307;BME280;21420;52.196;21.416;2022-10-16T04:24:12;100472.98;;;13.17;64.60
35307;BME280;21420;52.196;21.416;2022-10-16T04:26:38;100475.83;;;13.15;64.57
35307;BME280;21420;52.196;21.416;2022-10-16T04:29:04;100469.53;;;13.14;64.64
35307;BME280;21420;52.196;21.416;2022-10-16T04:31:31;100471.83;;;13.12;64.61
35307;BME280;21420;52.196;21.416;2022-10-16T04:33:57;100464.95;;;13.12;64.67
35307;BME280;21420;52.196;21.416;2022-10-16T04:36:23;100462.92;;;13.09;64.65
35307;BME280;21420;52.196;21.416;2022-10-16T04:38:50;100471.17;;;13.09;64.71
35307;BME280;21420;52.196;21.416;2022-10-16T04:41:16;100475.30;;;13.09;64.74
35307;BME280;21420;52.196;21.416;2022-10-16T04:43:42;100481.24;;;13.11;64.79
35307;BME280;21420;52.196;21.416;2022-10-16T04:46:08;100479.50;;;13.12;64.86
35307;BME280;21420;52.196;21.416;2022-10-16T04:48:35;100484.66;;;13.14;64.92
35307;BME280;21420;52.196;21.416;2022-10-16T04:51:01;100493.22;;;13.19;64.91
35307;BME280;21420;52.196;21.416;2022-10-16T04:53:28;100494.02;;;13.19;64.94
35307;BME280;21420;52.196;21.416;2022-10-16T04:55:54;100491.72;;;13.21;64.92
35307;BME280;21420;52.196;21.416;2022-10-16T04:58:22;100486.80;;;13.21;64.90
35307;BME280;21420;52.196;21.416;2022-10-16T05:00:48;100484.39;;;13.19;64.84
35307;BME280;21420;52.196;21.416;2022-10-16T05:03:14;100483.15;;;13.17;64.84
35307;BME280;21420;52.196;21.416;2022-10-16T05:05:44;100488.20;;;13.15;64.78
35307;BME280;21420;52.196;21.416;2022-10-16T05:08:13;100492.58;;;13.09;64.76
35307;BME280;21420;52.196;21.416;2022-10-16T05:10:41;100499.59;;;13.01;64.71
35307;BME280;21420;52.196;21.416;2022-10-16T05:13:09;100508.67;;;12.95;64.76
35307;BME280;21420;52.196;21.416;2022-10-16T05:15:35;100506.39;;;12.91;64.76
35307;BME280;21420;52.196;21.416;2022-10-16T05:18:02;100505.27;;;12.86;64.78
35307;BME280;21420;52.196;21.416;2022-10-16T05:20:28;100505.95;;;12.83;64.86
35307;BME280;21420;52.196;21.416;2022-10-16T05:22:54;100514.20;;;12.83;64.87
35307;BME280;21420;52.196;21.416;2022-10-16T05:25:21;100511.69;;;12.84;64.95
35307;BME280;21420;52.196;21.416;2022-10-16T05:27:48;100516.27;;;12.86;64.93
35307;BME280;21420;52.196;21.416;2022-10-16T05:30:16;100512.94;;;12.86;64.96
35307;BME280;21420;52.196;21.416;2022-10-16T05:32:49;100513.84;;;12.90;64.97
35307;BME280;21420;52.196;21.416;2022-10-16T05:35:13;100516.22;;;12.92;64.97
35307;BME280;21420;52.196;21.416;2022-10-16T05:37:40;100519.09;;;12.96;65.02
35307;BME280;21420;52.196;21.416;2022-10-16T05:40:08;100517.70;;;13.02;65.08
35307;BME280;21420;52.196;21.416;2022-10-16T05:42:34;100519.61;;;13.07;65.07
35307;BME280;21420;52.196;21.416;2022-10-16T05:45:00;100527.72;;;13.16;65.19
35307;BME280;21420;52.196;21.416;2022-10-16T05:47:27;100536.76;;;13.29;65.27
35307;BME280;21420;52.196;21.416;2022-10-16T05:49:53;100541.84;;;13.43;65.32
35307;BME280;21420;52.196;21.416;2022-10-16T05:52:19;100543.97;;;13.56;65.27
35307;BME280;21420;52.196;21.416;2022-10-16T06:15:03;100555.53;;;14.56;63.56
35307;BME280;21420;52.196;21.416;2022-10-16T06:17:30;100558.56;;;14.35;63.89
35307;BME280;21420;52.196;21.416;2022-10-16T06:19:57;100563.97;;;14.32;64.16
35307;BME280;21420;52.196;21.416;2022-10-16T06:22:23;100566.61;;;14.86;65.42
35307;BME280;21420;52.196;21.416;2022-10-16T06:24:49;100567.70;;;15.88;66.16
35307;BME280;21420;52.196;21.416;2022-10-16T06:27:16;100568.70;;;16.76;65.70
35307;BME280;21420;52.196;21.416;2022-10-16T06:29:42;100565.25;;;17.43;65.73
35307;BME280;21420;52.196;21.416;2022-10-16T06:32:09;100565.23;;;18.21;65.60
35307;BME280;21420;52.196;21.416;2022-10-16T06:34:35;100573.78;;;18.78;65.14
35307;BME280;21420;52.196;21.416;2022-10-16T06:37:01;100576.06;;;19.34;65.06
35307;BME280;21420;52.196;21.416;2022-10-16T06:39:27;100579.98;;;19.97;64.47
35307;BME280;21420;52.196;21.416;2022-10-16T06:41:54;100581.20;;;20.21;63.34
35307;BME280;21420;52.196;21.416;2022-10-16T06:44:22;100582.98;;;20.48;63.22
35307;BME280;21420;52.196;21.416;2022-10-16T06:46:48;100584.34;;;20.84;62.63
35307;BME280;21420;52.196;21.416;2022-10-16T06:49:14;100585.05;;;21.17;62.74
35307;BME280;21420;52.196;21.416;2022-10-16T07:03:21;100591.77;;;22.34;59.13
35307;BME280;21420;52.196;21.416;2022-10-16T07:05:47;100592.64;;;21.90;58.97
35307;BME280;21420;52.196;21.416;2022-10-16T07:08:13;100595.88;;;21.81;59.29
35307;BME280;21420;52.196;21.416;2022-10-16T07:10:40;100600.77;;;22.30;59.67
35307;BME280;21420;52.196;21.416;2022-10-16T07:13:06;100595.95;;;22.56;59.38
35307;BME280;21420;52.196;21.416;2022-10-16T07:15:37;100606.17;;;22.89;59.76
35307;BME280;21420;52.196;21.416;2022-10-16T07:18:08;100609.27;;;23.52;60.31
35307;BME280;21420;52.196;21.416;2022-10-16T07:20:32;100612.81;;;23.56;58.66
35307;BME280;21420;52.196;21.416;2022-10-16T07:22:58;100610.66;;;23.36;58.06
35307;BME280;21420;52.196;21.416;2022-10-16T07:25:25;100611.30;;;23.32;57.76
35307;BME280;21420;52.196;21.416;2022-10-16T07:27:51;100622.59;;;23.56;58.07
35307;BME280;21420;52.196;21.416;2022-10-16T07:30:17;100628.72;;;23.78;58.36
35307;BME280;21420;52.196;21.416;2022-10-16T07:32:43;100628.38;;;23.22;56.72
35307;BME280;21420;52.196;21.416;2022-10-16T07:35:09;100632.00;;;22.33;56.71
35307;BME280;21420;52.196;21.416;2022-10-16T07:37:36;100643.34;;;21.63;56.22
35307;BME280;21420;52.196;21.416;2022-10-16T07:40:02;100643.59;;;20.81;55.94
35307;BME280;21420;52.196;21.416;2022-10-16T07:42:29;100648.09;;;20.01;56.09
35307;BME280;21420;52.196;21.416;2022-10-16T07:44:56;100664.92;;;19.45;56.71
35307;BME280;21420;52.196;21.416;2022-10-16T07:47:22;100640.34;;;19.05;57.29
35307;BME280;21420;52.196;21.416;2022-10-16T07:49:48;100643.77;;;18.60;56.88
35307;BME280;21420;52.196;21.416;2022-10-16T07:52:14;100647.95;;;18.19;57.44
35307;BME280;21420;52.196;21.416;2022-10-16T07:54:41;100644.91;;;17.91;57.64
35307;BME280;21420;52.196;21.416;2022-10-16T07:57:08;100639.44;;;17.64;57.78
35307;BME280;21420;52.196;21.416;2022-10-16T07:59:34;100630.04;;;17.38;57.88
35307;BME280;21420;52.196;21.416;2022-10-16T08:02:00;100631.90;;;17.31;58.25
35307;BME280;21420;52.196;21.416;2022-10-16T08:04:26;100621.94;;;17.39;58.83
35307;BME280;21420;52.196;21.416;2022-10-16T08:06:53;100621.94;;;17.73;59.50
35307;BME280;21420;52.196;21.416;2022-10-16T08:09:20;100624.14;;;18.11;59.35
35307;BME280;21420;52.196;21.416;2022-10-16T08:11:46;100612.02;;;18.26;59.27
35307;BME280;21420;52.196;21.416;2022-10-16T08:14:12;100603.46;;;18.73;59.87
35307;BME280;21420;52.196;21.416;2022-10-16T08:16:39;100606.95;;;19.79;60.52
35307;BME280;21420;52.196;21.416;2022-10-16T08:19:05;100599.46;;;20.83;60.04
35307;BME280;21420;52.196;21.416;2022-10-16T08:21:32;100598.45;;;20.78;58.45
35307;BME280;21420;52.196;21.416;2022-10-16T08:23:58;100606.23;;;20.43;58.10
35307;BME280;21420;52.196;21.416;2022-10-16T08:26:26;100611.58;;;20.09;57.66
35307;BME280;21420;52.196;21.416;2022-10-16T08:28:54;100613.94;;;19.93;58.14
35307;BME280;21420;52.196;21.416;2022-10-16T08:31:21;100612.72;;;19.90;57.79
35307;BME280;21420;52.196;21.416;2022-10-16T08:33:49;100627.40;;;19.80;58.27
35307;BME280;21420;52.196;21.416;2022-10-16T08:36:15;100623.86;;;20.01;58.50
35307;BME280;21420;52.196;21.416;2022-10-16T08:38:42;100626.87;;;20.16;58.09
35307;BME280;21420;52.196;21.416;2022-10-16T08:49:31;100627.45;;;20.05;58.11
35307;BME280;21420;52.196;21.416;2022-10-16T08:51:58;100635.53;;;21.23;59.19
35307;BME280;21420;52.196;21.416;2022-10-16T08:54:37;100637.91;;;22.09;59.17
35307;BME280;21420;52.196;21.416;2022-10-16T08:57:11;100639.05;;;22.22;57.96
35307;BME280;21420;52.196;21.416;2022-10-16T08:59:39;100633.22;;;21.98;57.33
35307;BME280;21420;52.196;21.416;2022-10-16T09:02:20;100632.81;;;21.63;56.92
35307;BME280;21420;52.196;21.416;2022-10-16T09:05:17;100632.50;;;21.36;56.79
35307;BME280;21420;52.196;21.416;2022-10-16T09:08:01;100632.64;;;20.86;56.53
35307;BME280;21420;52.196;21.416;2022-10-16T09:10:38;100645.36;;;20.54;56.68
35307;BME280;21420;52.196;21.416;2022-10-16T09:13:27;100641.57;;;20.35;56.58
35307;BME280;21420;52.196;21.416;2022-10-16T09:19:09;100651.27;;;20.10;57.23
35307;BME280;21420;52.196;21.416;2022-10-16T09:21:42;100659.41;;;20.12;57.38
35307;BME280;21420;52.196;21.416;2022-10-16T09:24:16;100658.05;;;20.16;57.51
35307;BME280;21420;52.196;21.416;2022-10-16T09:26:45;100658.25;;;20.28;57.61
35307;BME280;21420;52.196;21.416;2022-10-16T09:29:14;100659.66;;;20.53;57.87
35307;BME280;21420;52.196;21.416;2022-10-16T09:31:42;100644.48;;;21.18;58.59
35307;BME280;21420;52.196;21.416;2022-10-16T09:36:50;100658.02;;;23.13;58.65
35307;BME280;21420;52.196;21.416;2022-10-16T09:39:17;100652.44;;;23.47;57.55
35307;BME280;21420;52.196;21.416;2022-10-16T09:41:45;100645.29;;;23.77;57.64
35307;BME280;21420;52.196;21.416;2022-10-16T09:44:24;100651.61;;;24.86;58.14
35307;BME280;21420;52.196;21.416;2022-10-16T09:47:12;100638.70;;;25.80;57.87
35307;BME280;21420;52.196;21.416;2022-10-16T09:49:59;100628.66;;;25.83;55.90
35307;BME280;21420;52.196;21.416;2022-10-16T09:52:30;100632.80;;;25.66;55.43
35307;BME280;21420;52.196;21.416;2022-10-16T09:54:59;100619.86;;;26.09;55.54
35307;BME280;21420;52.196;21.416;2022-10-16T09:57:27;100640.13;;;26.16;54.58
35307;BME280;21420;52.196;21.416;2022-10-16T09:59:57;100639.80;;;26.55;55.29
35307;BME280;21420;52.196;21.416;2022-10-16T10:02:35;100640.98;;;26.87;55.01
35307;BME280;21420;52.196;21.416;2022-10-16T10:05:13;100631.50;;;27.18;54.88
35307;BME280;21420;52.196;21.416;2022-10-16T10:07:53;100640.58;;;27.39;54.16
35307;BME280;21420;52.196;21.416;2022-10-16T10:10:24;100635.98;;;27.45;53.93
35307;BME280;21420;52.196;21.416;2022-10-16T10:12:52;100641.25;;;27.22;53.69
35307;BME280;21420;52.196;21.416;2022-10-16T10:15:19;100637.28;;;27.19;53.54
35307;BME280;21420;52.196;21.416;2022-10-16T10:22:56;100640.37;;;26.06;52.32
35307;BME280;21420;52.196;21.416;2022-10-16T10:25:49;100640.66;;;25.83;52.40
35307;BME280;21420;52.196;21.416;2022-10-16T10:28:36;100632.38;;;25.68;52.44
35307;BME280;21420;52.196;21.416;2022-10-16T10:31:12;100638.59;;;25.87;53.22
35307;BME280;21420;52.196;21.416;2022-10-16T10:36:54;100642.23;;;26.29;52.84
35307;BME280;21420;52.196;21.416;2022-10-16T10:39:25;100644.99;;;25.88;52.13
35307;BME280;21420;52.196;21.416;2022-10-16T10:42:16;100630.80;;;25.39;52.05
35307;BME280;21420;52.196;21.416;2022-10-16T10:53:42;100634.48;;;23.79;52.29
35307;BME280;21420;52.196;21.416;2022-10-16T10:56:56;100634.97;;;23.55;52.14
35307;BME280;21420;52.196;21.416;2022-10-16T11:02:26;100619.93;;;22.69;52.54
35307;BME280;21420;52.196;21.416;2022-10-16T11:05:23;100623.51;;;22.47;52.57
35307;BME280;21420;52.196;21.416;2022-10-16T11:08:48;100618.53;;;22.20;52.57
35307;BME280;21420;52.196;21.416;2022-10-16T11:13:51;100613.31;;;21.96;53.39
35307;BME280;21420;52.196;21.416;2022-10-16T11:16:22;100612.77;;;21.90;53.27
35307;BME280;21420;52.196;21.416;2022-10-16T11:19:21;100622.39;;;21.78;53.27
35307;BME280;21420;52.196;21.416;2022-10-16T11:21:51;100615.08;;;21.69;53.42
35307;BME280;21420;52.196;21.416;2022-10-16T11:24:28;100612.65;;;21.74;53.69
35307;BME280;21420;52.196;21.416;2022-10-16T11:26:55;100614.59;;;21.85;54.02
35307;BME280;21420;52.196;21.416;2022-10-16T11:29:25;100611.56;;;22.20;54.40
35307;BME280;21420;52.196;21.416;2022-10-16T11:31:56;100617.34;;;22.21;53.74
35307;BME280;21420;52.196;21.416;2022-10-16T11:34:36;100615.95;;;22.21;53.90
35307;BME280;21420;52.196;21.416;2022-10-16T11:37:14;100613.49;;;22.31;53.78
35307;BME280;21420;52.196;21.416;2022-10-16T11:39:43;100610.94;;;22.24;53.66
35307;BME280;21420;52.196;21.416;2022-10-16T11:42:22;100606.27;;;22.37;54.06
35307;BME280;21420;52.196;21.416;2022-10-16T11:50:54;100622.50;;;22.49;53.74
35307;BME280;21420;52.196;21.416;2022-10-16T11:53:50;100615.88;;;22.32;53.72
35307;BME280;21420;52.196;21.416;2022-10-16T11:56:20;100616.97;;;22.45;54.01
35307;BME280;21420;52.196;21.416;2022-10-16T11:58:57;100614.78;;;22.68;54.09
35307;BME280;21420;52.196;21.416;2022-10-16T12:01:35;100617.31;;;22.93;54.18
35307;BME280;21420;52.196;21.416;2022-10-16T12:06:54;100629.31;;;23.27;53.65
35307;BME280;21420;52.196;21.416;2022-10-16T12:09:40;100632.98;;;23.21;53.27
35307;BME280;21420;52.196;21.416;2022-10-16T12:12:04;100615.61;;;23.06;53.43
35307;BME280;21420;52.196;21.416;2022-10-16T12:14:36;100617.77;;;23.25;53.71
35307;BME280;21420;52.196;21.416;2022-10-16T12:17:23;100617.35;;;23.27;53.05
35307;BME280;21420;52.196;21.416;2022-10-16T12:22:51;100613.78;;;23.07;53.08
35307;BME280;21420;52.196;21.416;2022-10-16T12:25:35;100613.72;;;23.15;53.22
35307;BME280;21420;52.196;21.416;2022-10-16T12:28:20;100623.31;;;23.10;52.75
35307;BME280;21420;52.196;21.416;2022-10-16T12:30:53;100618.86;;;22.97;53.11
35307;BME280;21420;52.196;21.416;2022-10-16T12:35:58;100610.59;;;22.68;52.58
35307;BME280;21420;52.196;21.416;2022-10-16T12:38:48;100628.23;;;22.54;52.87
35307;BME280;21420;52.196;21.416;2022-10-16T12:41:31;100615.52;;;22.49;53.12
35307;BME280;21420;52.196;21.416;2022-10-16T12:43:57;100628.69;;;22.49;53.10
35307;BME280;21420;52.196;21.416;2022-10-16T12:51:51;100622.22;;;22.36;53.13
35307;BME280;21420;52.196;21.416;2022-10-16T12:54:20;100626.89;;;22.24;53.12
35307;BME280;21420;52.196;21.416;2022-10-16T12:57:06;100623.62;;;22.07;53.05
35307;BME280;21420;52.196;21.416;2022-10-16T13:06:16;100629.97;;;21.77;53.39
35307;BME280;21420;52.196;21.416;2022-10-16T13:09:13;100621.83;;;21.71;53.39
35307;BME280;21420;52.196;21.416;2022-10-16T13:21:01;100639.67;;;21.30;53.59
35307;BME280;21420;52.196;21.416;2022-10-16T13:23:35;100646.06;;;21.27;53.70
35307;BME280;21420;52.196;21.416;2022-10-16T13:29:14;100635.31;;;21.25;53.88
35307;BME280;21420;52.196;21.416;2022-10-16T13:31:40;100640.91;;;21.18;53.86
35307;BME280;21420;52.196;21.416;2022-10-16T13:34:18;100647.08;;;21.14;53.89
35307;BME280;21420;52.196;21.416;2022-10-16T13:36:49;100650.88;;;21.05;53.84
35307;BME280;21420;52.196;21.416;2022-10-16T13:39:24;100651.92;;;20.92;53.83
35307;BME280;21420;52.196;21.416;2022-10-16T13:44:44;100660.30;;;20.74;53.86
35307;BME280;21420;52.196;21.416;2022-10-16T13:47:16;100656.53;;;20.58;53.83
35307;BME280;21420;52.196;21.416;2022-10-16T13:49:45;100665.44;;;20.47;54.02
35307;BME280;21420;52.196;21.416;2022-10-16T13:52:17;100662.84;;;20.33;53.97
35307;BME280;21420;52.196;21.416;2022-10-16T13:54:45;100668.97;;;20.26;54.13
35307;BME280;21420;52.196;21.416;2022-10-16T13:57:16;100668.16;;;20.14;54.16
35307;BME280;21420;52.196;21.416;2022-10-16T13:59:43;100670.14;;;20.07;54.29
35307;BME280;21420;52.196;21.416;2022-10-16T14:02:57;100671.33;;;20.02;54.35
35307;BME280;21420;52.196;21.416;2022-10-16T14:04:47;100673.29;;;19.98;54.41
35307;BME280;21420;52.196;21.416;2022-10-16T14:07:23;100670.11;;;19.96;54.57
35307;BME280;21420;52.196;21.416;2022-10-16T14:09:49;100670.30;;;19.93;54.56
35307;BME280;21420;52.196;21.416;2022-10-16T14:12:18;100669.30;;;19.88;54.58
35307;BME280;21420;52.196;21.416;2022-10-16T14:14:50;100673.05;;;19.83;54.59
35307;BME280;21420;52.196;21.416;2022-10-16T14:17:22;100674.03;;;19.77;54.60
35307;BME280;21420;52.196;21.416;2022-10-16T14:19:57;100664.42;;;19.67;54.64
35307;BME280;21420;52.196;21.416;2022-10-16T14:22:36;100666.58;;;19.61;54.72
35307;BME280;21420;52.196;21.416;2022-10-16T14:25:29;100667.34;;;19.54;54.81
35307;BME280;21420;52.196;21.416;2022-10-16T14:30:59;100678.05;;;19.48;54.95
35307;BME280;21420;52.196;21.416;2022-10-16T14:33:37;100673.44;;;19.39;54.98
35307;BME280;21420;52.196;21.416;2022-10-16T14:38:49;100673.38;;;19.28;55.13
35307;BME280;21420;52.196;21.416;2022-10-16T14:41:09;100679.88;;;19.23;55.13
35307;BME280;21420;52.196;21.416;2022-10-16T14:43:40;100679.23;;;19.16;55.22
35307;BME280;21420;52.196;21.416;2022-10-16T14:46:19;100684.97;;;19.13;55.29
35307;BME280;21420;52.196;21.416;2022-10-16T14:48:51;100688.34;;;19.13;55.42
35307;BME280;21420;52.196;21.416;2022-10-16T14:51:20;100691.72;;;19.12;55.44
35307;BME280;21420;52.196;21.416;2022-10-16T14:53:48;100685.53;;;19.06;55.43
35307;BME280;21420;52.196;21.416;2022-10-16T14:56:18;100690.30;;;19.05;55.56
35307;BME280;21420;52.196;21.416;2022-10-16T14:58:47;100692.84;;;19.04;55.63
35307;BME280;21420;52.196;21.416;2022-10-16T15:01:14;100701.73;;;19.00;55.55
35307;BME280;21420;52.196;21.416;2022-10-16T15:03:41;100696.36;;;18.94;55.60
35307;BME280;21420;52.196;21.416;2022-10-16T15:06:15;100691.33;;;18.86;55.56
35307;BME280;21420;52.196;21.416;2022-10-16T15:08:42;100696.23;;;18.80;55.61
35307;BME280;21420;52.196;21.416;2022-10-16T15:11:15;100690.60;;;18.72;55.70